sensor_id;sensor_type;location;lat;lon;timestamp;P1;durP1;ratioP1;P2;durP2;ratioP2
1336;SDS011;662;48.814;9.318;2022-11-15T00:00:46;6.23;;;5.63;;
1336;SDS011;662;48.814;9.318;2022-11-15T00:03:13;6.10;;;5.00;;
1336;SDS011;662;48.814;9.318;2022-11-15T00:05:42;4.67;;;4.20;;
1336;SDS011;662;48.814;9.318;2022-11-15T00:08:09;6.07;;;5.47;;
1336;SDS011;662;48.814;9.318;2022-11-15T00:10:34;6.40;;;4.73;;
1336;SDS011;662;48.814;9.318;2022-11-15T00:13:03;6.33;;;5.30;;
1336;SDS011;662;48.814;9.318;2022-11-15T00:15:33;5.67;;;5.07;;
1336;SDS011;662;48.814;9.318;2022-11-15T00:18:00;8.20;;;5.50;;
1336;SDS011;662;48.814;9.318;2022-11-15T00:20:26;6.23;;;5.37;;
1336;SDS011;662;48.814;9.318;2022-11-15T00:22:52;7.00;;;5.50;;
1336;SDS011;662;48.814;9.318;2022-11-15T00:25:17;6.30;;;5.30;;
1336;SDS011;662;48.814;9.318;2022-11-15T00:27:43;7.50;;;6.47;;
1336;SDS011;662;48.814;9.318;2022-11-15T00:30:10;5.80;;;5.27;;
1336;SDS011;662;48.814;9.318;2022-11-15T00:32:36;7.67;;;6.20;;
1336;SDS011;662;48.814;9.318;2022-11-15T00:35:02;7.07;;;6.00;;
1336;SDS011;662;48.814;9.318;2022-11-15T00:37:27;6.30;;;5.50;;
1336;SDS011;662;48.814;9.318;2022-11-15T00:39:53;8.80;;;6.50;;
1336;SDS011;662;48.814;9.318;2022-11-15T00:42:19;7.80;;;6.83;;
1336;SDS011;662;48.814;9.318;2022-11-15T00:44:44;6.00;;;5.50;;
1336;SDS011;662;48.814;9.318;2022-11-15T00:47:10;6.80;;;6.10;;
1336;SDS011;662;48.814;9.318;2022-11-15T00:49:36;9.73;;;6.40;;
1336;SDS011;662;48.814;9.318;2022-11-15T00:52:01;5.93;;;5.40;;
1336;SDS011;662;48.814;9.318;2022-11-15T00:54:27;6.40;;;5.47;;
1336;SDS011;662;48.814;9.318;2022-11-15T00:56:53;6.40;;;5.00;;
1336;SDS011;662;48.814;9.318;2022-11-15T00:59:18;7.17;;;5.67;;
1336;SDS011;662;48.814;9.318;2022-11-15T01:01:44;5.30;;;4.80;;
1336;SDS011;662;48.814;9.318;2022-11-15T01:04:09;4.80;;;4.40;;
1336;SDS011;662;48.814;9.318;2022-11-15T01:06:35;4.17;;;3.47;;
1336;SDS011;662;48.814;9.318;2022-11-15T01:09:01;5.47;;;3.67;;
1336;SDS011;662;48.814;9.318;2022-11-15T01:11:26;7.20;;;3.70;;
1336;SDS011;662;48.814;9.318;2022-11-15T01:13:52;5.50;;;4.03;;
1336;SDS011;662;48.814;9.318;2022-11-15T01:16:19;4.90;;;4.10;;
1336;SDS011;662;48.814;9.318;2022-11-15T01:18:45;5.03;;;4.53;;
1336;SDS011;662;48.814;9.318;2022-11-15T01:21:15;7.27;;;5.40;;
1336;SDS011;662;48.814;9.318;2022-11-15T01:23:42;6.57;;;5.03;;
1336;SDS011;662;48.814;9.318;2022-11-15T01:26:11;7.90;;;5.23;;
1336;SDS011;662;48.814;9.318;2022-11-15T01:28:38;6.17;;;5.57;;
1336;SDS011;662;48.814;9.318;2022-11-15T01:31:06;6.60;;;4.97;;
1336;SDS011;662;48.814;9.318;2022-11-15T01:33:36;5.63;;;5.07;;
1336;SDS011;662;48.814;9.318;2022-11-15T01:36:09;9.63;;;6.93;;
1336;SDS011;662;48.814;9.318;2022-11-15T01:38:37;6.73;;;5.70;;
1336;SDS011;662;48.814;9.318;2022-11-15T01:41:03;6.63;;;6.03;;
1336;SDS011;662;48.814;9.318;2022-11-15T01:43:30;6.17;;;5.57;;
1336;SDS011;662;48.814;9.318;2022-11-15T01:46:01;5.80;;;5.20;;
1336;SDS011;662;48.814;9.318;2022-11-15T01:48:34;5.93;;;5.10;;
1336;SDS011;662;48.814;9.318;2022-11-15T01:51:01;6.00;;;4.90;;
1336;SDS011;662;48.814;9.318;2022-11-15T01:53:31;8.40;;;5.40;;
1336;SDS011;662;48.814;9.318;2022-11-15T01:55:59;5.40;;;4.90;;
1336;SDS011;662;48.814;9.318;2022-11-15T01:58:29;5.33;;;4.83;;
1336;SDS011;662;48.814;9.318;2022-11-15T02:00:55;5.50;;;5.00;;
1336;SDS011;662;48.814;9.318;2022-11-15T02:03:21;6.73;;;4.80;;
1336;SDS011;662;48.814;9.318;2022-11-15T02:05:50;5.40;;;4.90;;
1336;SDS011;662;48.814;9.318;2022-11-15T02:08:16;5.43;;;4.93;;
1336;SDS011;662;48.814;9.318;2022-11-15T02:10:45;5.67;;;4.80;;
1336;SDS011;662;48.814;9.318;2022-11-15T02:13:13;5.53;;;5.03;;
1336;SDS011;662;48.814;9.318;2022-11-15T02:15:46;5.87;;;5.27;;
1336;SDS011;662;48.814;9.318;2022-11-15T02:18:32;6.17;;;4.80;;
1336;SDS011;662;48.814;9.318;2022-11-15T02:29:24;6.70;;;5.83;;
1336;SDS011;662;48.814;9.318;2022-11-15T02:37:39;6.83;;;5.10;;
1336;SDS011;662;48.814;9.318;2022-11-15T02:40:23;6.53;;;5.30;;
1336;SDS011;662;48.814;9.318;2022-11-15T02:43:04;7.93;;;5.47;;
1336;SDS011;662;48.814;9.318;2022-11-15T02:45:54;6.67;;;5.63;;
1336;SDS011;662;48.814;9.318;2022-11-15T02:48:26;6.00;;;5.40;;
1336;SDS011;662;48.814;9.318;2022-11-15T02:50:53;5.90;;;5.30;;
1336;SDS011;662;48.814;9.318;2022-11-15T02:53:23;5.70;;;5.17;;
1336;SDS011;662;48.814;9.318;2022-11-15T02:55:52;5.30;;;4.73;;
1336;SDS011;662;48.814;9.318;2022-11-15T03:04:02;5.20;;;4.70;;
1336;SDS011;662;48.814;9.318;2022-11-15T03:06:50;6.33;;;4.80;;
1336;SDS011;662;48.814;9.318;2022-11-15T03:09:35;5.37;;;4.87;;
1336;SDS011;662;48.814;9.318;2022-11-15T03:15:41;5.93;;;4.40;;
1336;SDS011;662;48.814;9.318;2022-11-15T03:18:00;4.73;;;4.33;;
1336;SDS011;662;48.814;9.318;2022-11-15T03:20:35;4.80;;;4.40;;
1336;SDS011;662;48.814;9.318;2022-11-15T03:23:06;4.93;;;4.40;;
1336;SDS011;662;48.814;9.318;2022-11-15T03:25:36;5.80;;;4.20;;
1336;SDS011;662;48.814;9.318;2022-11-15T03:28:06;4.37;;;3.97;;
1336;SDS011;662;48.814;9.318;2022-11-15T03:30:37;4.70;;;4.30;;
1336;SDS011;662;48.814;9.318;2022-11-15T03:33:04;4.40;;;4.00;;
1336;SDS011;662;48.814;9.318;2022-11-15T03:35:34;4.97;;;3.90;;
1336;SDS011;662;48.814;9.318;2022-11-15T03:40:59;6.23;;;4.90;;
1336;SDS011;662;48.814;9.318;2022-11-15T03:44:08;4.57;;;4.17;;
1336;SDS011;662;48.814;9.318;2022-11-15T03:46:51;7.97;;;6.43;;
1336;SDS011;662;48.814;9.318;2022-11-15T03:49:27;6.17;;;5.67;;
1336;SDS011;662;48.814;9.318;2022-11-15T03:51:58;6.47;;;5.73;;
1336;SDS011;662;48.814;9.318;2022-11-15T03:54:24;6.60;;;5.87;;
1336;SDS011;662;48.814;9.318;2022-11-15T03:56:50;5.37;;;4.73;;
1336;SDS011;662;48.814;9.318;2022-11-15T03:59:15;5.60;;;5.20;;
1336;SDS011;662;48.814;9.318;2022-11-15T04:01:41;5.50;;;4.80;;
1336;SDS011;662;48.814;9.318;2022-11-15T04:04:07;4.80;;;3.80;;
1336;SDS011;662;48.814;9.318;2022-11-15T04:06:32;4.73;;;4.23;;
1336;SDS011;662;48.814;9.318;2022-11-15T04:08:59;5.13;;;4.17;;
1336;SDS011;662;48.814;9.318;2022-11-15T04:11:24;4.50;;;4.03;;
1336;SDS011;662;48.814;9.318;2022-11-15T04:13:50;5.50;;;3.93;;
1336;SDS011;662;48.814;9.318;2022-11-15T04:16:15;5.33;;;4.80;;
1336;SDS011;662;48.814;9.318;2022-11-15T04:18:41;5.90;;;5.00;;
1336;SDS011;662;48.814;9.318;2022-11-15T04:21:07;5.80;;;4.93;;
1336;SDS011;662;48.814;9.318;2022-11-15T04:23:51;6.77;;;4.77;;
1336;SDS011;662;48.814;9.318;2022-11-15T04:26:20;5.37;;;4.87;;
1336;SDS011;662;48.814;9.318;2022-11-15T04:28:47;7.23;;;4.70;;
1336;SDS011;662;48.814;9.318;2022-11-15T04:31:36;6.53;;;5.40;;
1336;SDS011;662;48.814;9.318;2022-11-15T04:34:02;4.83;;;4.40;;
1336;SDS011;662;48.814;9.318;2022-11-15T04:36:27;5.77;;;5.20;;
1336;SDS011;662;48.814;9.318;2022-11-15T04:39:11;5.83;;;4.27;;
1336;SDS011;662;48.814;9.318;2022-11-15T04:41:37;5.67;;;3.97;;
1336;SDS011;662;48.814;9.318;2022-11-15T04:44:03;4.90;;;4.50;;
1336;SDS011;662;48.814;9.318;2022-11-15T04:46:28;5.50;;;5.00;;
1336;SDS011;662;48.814;9.318;2022-11-15T04:48:54;5.77;;;5.27;;
1336;SDS011;662;48.814;9.318;2022-11-15T04:51:20;6.50;;;5.10;;
1336;SDS011;662;48.814;9.318;2022-11-15T04:53:45;6.23;;;4.50;;
1336;SDS011;662;48.814;9.318;2022-11-15T04:56:11;7.10;;;4.50;;
1336;SDS011;662;48.814;9.318;2022-11-15T04:58:37;4.97;;;4.47;;
1336;SDS011;662;48.814;9.318;2022-11-15T05:01:07;5.87;;;4.50;;
1336;SDS011;662;48.814;9.318;2022-11-15T05:03:33;5.10;;;4.60;;
1336;SDS011;662;48.814;9.318;2022-11-15T05:06:17;6.50;;;4.47;;
1336;SDS011;662;48.814;9.318;2022-11-15T05:08:42;4.77;;;4.27;;
1336;SDS011;662;48.814;9.318;2022-11-15T05:11:08;6.00;;;4.97;;
1336;SDS011;662;48.814;9.318;2022-11-15T05:13:33;5.50;;;5.00;;
1336;SDS011;662;48.814;9.318;2022-11-15T05:15:59;5.17;;;4.67;;
1336;SDS011;662;48.814;9.318;2022-11-15T05:18:25;5.40;;;4.90;;
1336;SDS011;662;48.814;9.318;2022-11-15T05:20:50;6.30;;;4.57;;
1336;SDS011;662;48.814;9.318;2022-11-15T05:23:16;5.90;;;5.33;;
1336;SDS011;662;48.814;9.318;2022-11-15T05:25:41;6.43;;;5.20;;
1336;SDS011;662;48.814;9.318;2022-11-15T05:28:07;5.80;;;5.17;;
1336;SDS011;662;48.814;9.318;2022-11-15T05:30:33;5.30;;;4.67;;
1336;SDS011;662;48.814;9.318;2022-11-15T05:32:58;5.97;;;4.67;;
1336;SDS011;662;48.814;9.318;2022-11-15T05:35:27;5.03;;;4.50;;
1336;SDS011;662;48.814;9.318;2022-11-15T05:38:05;6.13;;;4.10;;
1336;SDS011;662;48.814;9.318;2022-11-15T05:40:30;4.47;;;3.77;;
1336;SDS011;662;48.814;9.318;2022-11-15T05:42:57;4.10;;;3.70;;
1336;SDS011;662;48.814;9.318;2022-11-15T05:45:25;4.70;;;3.90;;
1336;SDS011;662;48.814;9.318;2022-11-15T05:47:51;6.03;;;4.13;;
1336;SDS011;662;48.814;9.318;2022-11-15T05:50:18;5.67;;;3.90;;
1336;SDS011;662;48.814;9.318;2022-11-15T05:52:44;4.50;;;4.00;;
1336;SDS011;662;48.814;9.318;2022-11-15T05:55:11;5.13;;;3.93;;
1336;SDS011;662;48.814;9.318;2022-11-15T05:57:37;4.53;;;3.83;;
1336;SDS011;662;48.814;9.318;2022-11-15T06:00:04;4.63;;;4.03;;
1336;SDS011;662;48.814;9.318;2022-11-15T06:02:30;3.80;;;3.50;;
1336;SDS011;662;48.814;9.318;2022-11-15T06:04:55;4.10;;;3.70;;
1336;SDS011;662;48.814;9.318;2022-11-15T06:07:21;4.53;;;3.73;;
1336;SDS011;662;48.814;9.318;2022-11-15T06:09:47;7.30;;;4.23;;
1336;SDS011;662;48.814;9.318;2022-11-15T06:12:13;4.50;;;4.10;;
1336;SDS011;662;48.814;9.318;2022-11-15T06:14:38;5.50;;;4.87;;
1336;SDS011;662;48.814;9.318;2022-11-15T06:17:04;6.67;;;5.50;;
1336;SDS011;662;48.814;9.318;2022-11-15T06:19:30;6.57;;;5.87;;
1336;SDS011;662;48.814;9.318;2022-11-15T06:21:58;7.90;;;7.10;;
1336;SDS011;662;48.814;9.318;2022-11-15T06:24:24;9.60;;;8.70;;
1336;SDS011;662;48.814;9.318;2022-11-15T06:26:50;10.27;;;7.90;;
1336;SDS011;662;48.814;9.318;2022-11-15T06:29:15;7.73;;;6.90;;
1336;SDS011;662;48.814;9.318;2022-11-15T06:31:41;6.90;;;6.20;;
1336;SDS011;662;48.814;9.318;2022-11-15T06:34:07;6.90;;;5.80;;
1336;SDS011;662;48.814;9.318;2022-11-15T06:36:34;6.20;;;5.60;;
1336;SDS011;662;48.814;9.318;2022-11-15T06:39:00;5.57;;;5.00;;
1336;SDS011;662;48.814;9.318;2022-11-15T06:41:26;5.63;;;5.20;;
1336;SDS011;662;48.814;9.318;2022-11-15T06:43:51;5.77;;;5.27;;
1336;SDS011;662;48.814;9.318;2022-11-15T06:46:17;14.53;;;7.03;;
1336;SDS011;662;48.814;9.318;2022-11-15T06:48:42;7.23;;;6.60;;
1336;SDS011;662;48.814;9.318;2022-11-15T06:51:08;7.50;;;6.63;;
1336;SDS011;662;48.814;9.318;2022-11-15T06:53:34;6.47;;;5.43;;
1336;SDS011;662;48.814;9.318;2022-11-15T06:56:00;8.60;;;6.30;;
1336;SDS011;662;48.814;9.318;2022-11-15T06:58:27;7.73;;;5.50;;
1336;SDS011;662;48.814;9.318;2022-11-15T07:00:53;7.50;;;6.50;;
1336;SDS011;662;48.814;9.318;2022-11-15T07:03:19;7.20;;;6.17;;
1336;SDS011;662;48.814;9.318;2022-11-15T07:05:54;8.23;;;5.40;;
1336;SDS011;662;48.814;9.318;2022-11-15T07:08:21;6.73;;;5.40;;
1336;SDS011;662;48.814;9.318;2022-11-15T07:10:47;6.33;;;5.57;;
1336;SDS011;662;48.814;9.318;2022-11-15T07:13:13;6.50;;;5.90;;
1336;SDS011;662;48.814;9.318;2022-11-15T07:15:39;6.50;;;5.83;;
1336;SDS011;662;48.814;9.318;2022-11-15T07:18:05;7.90;;;6.00;;
1336;SDS011;662;48.814;9.318;2022-11-15T07:20:30;9.57;;;7.20;;
1336;SDS011;662;48.814;9.318;2022-11-15T07:23:00;9.50;;;6.00;;
1336;SDS011;662;48.814;9.318;2022-11-15T07:25:27;7.53;;;6.67;;
1336;SDS011;662;48.814;9.318;2022-11-15T07:27:56;13.13;;;6.17;;
1336;SDS011;662;48.814;9.318;2022-11-15T07:30:23;7.63;;;6.20;;
1336;SDS011;662;48.814;9.318;2022-11-15T07:32:53;8.30;;;5.00;;
1336;SDS011;662;48.814;9.318;2022-11-15T07:35:20;10.37;;;5.70;;
1336;SDS011;662;48.814;9.318;2022-11-15T07:37:52;6.67;;;5.80;;
1336;SDS011;662;48.814;9.318;2022-11-15T07:40:28;6.23;;;5.63;;
1336;SDS011;662;48.814;9.318;2022-11-15T07:42:59;5.93;;;5.33;;
1336;SDS011;662;48.814;9.318;2022-11-15T07:45:29;6.10;;;5.00;;
1336;SDS011;662;48.814;9.318;2022-11-15T07:47:55;7.27;;;5.20;;
1336;SDS011;662;48.814;9.318;2022-11-15T07:50:22;5.93;;;5.33;;
1336;SDS011;662;48.814;9.318;2022-11-15T07:52:52;9.43;;;5.50;;
1336;SDS011;662;48.814;9.318;2022-11-15T07:55:22;7.50;;;6.40;;
1336;SDS011;662;48.814;9.318;2022-11-15T07:57:49;8.87;;;5.80;;
1336;SDS011;662;48.814;9.318;2022-11-15T08:00:15;8.70;;;6.50;;
1336;SDS011;662;48.814;9.318;2022-11-15T08:02:41;9.00;;;6.17;;
1336;SDS011;662;48.814;9.318;2022-11-15T08:05:07;7.50;;;6.07;;
1336;SDS011;662;48.814;9.318;2022-11-15T08:07:33;9.40;;;6.30;;
1336;SDS011;662;48.814;9.318;2022-11-15T08:09:58;9.10;;;6.40;;
1336;SDS011;662;48.814;9.318;2022-11-15T08:12:26;6.70;;;5.83;;
1336;SDS011;662;48.814;9.318;2022-11-15T08:14:54;6.97;;;5.83;;
1336;SDS011;662;48.814;9.318;2022-11-15T08:17:21;12.23;;;5.87;;
1336;SDS011;662;48.814;9.318;2022-11-15T08:19:47;8.30;;;6.30;;
1336;SDS011;662;48.814;9.318;2022-11-15T08:22:13;10.10;;;5.80;;
1336;SDS011;662;48.814;9.318;2022-11-15T08:24:39;7.47;;;6.10;;
1336;SDS011;662;48.814;9.318;2022-11-15T08:27:04;6.60;;;5.57;;
1336;SDS011;662;48.814;9.318;2022-11-15T08:29:40;11.17;;;7.30;;
1336;SDS011;662;48.814;9.318;2022-11-15T08:32:09;16.23;;;10.60;;
1336;SDS011;662;48.814;9.318;2022-11-15T08:34:36;33.30;;;16.93;;
1336;SDS011;662;48.814;9.318;2022-11-15T08:37:04;33.13;;;16.57;;
1336;SDS011;662;48.814;9.318;2022-11-15T08:39:30;26.10;;;13.70;;
1336;SDS011;662;48.814;9.318;2022-11-15T08:41:56;22.30;;;10.93;;
1336;SDS011;662;48.814;9.318;2022-11-15T08:44:22;13.70;;;8.27;;
1336;SDS011;662;48.814;9.318;2022-11-15T08:46:49;11.23;;;7.10;;
1336;SDS011;662;48.814;9.318;2022-11-15T08:49:14;10.20;;;7.10;;
1336;SDS011;662;48.814;9.318;2022-11-15T08:51:41;11.20;;;6.40;;
1336;SDS011;662;48.814;9.318;2022-11-15T08:54:06;9.80;;;6.17;;
1336;SDS011;662;48.814;9.318;2022-11-15T08:56:32;6.93;;;5.50;;
1336;SDS011;662;48.814;9.318;2022-11-15T08:58:57;11.27;;;6.20;;
1336;SDS011;662;48.814;9.318;2022-11-15T09:01:23;9.93;;;5.80;;
1336;SDS011;662;48.814;9.318;2022-11-15T09:03:49;6.23;;;5.33;;
1336;SDS011;662;48.814;9.318;2022-11-15T09:06:16;6.63;;;5.80;;
1336;SDS011;662;48.814;9.318;2022-11-15T09:08:41;9.50;;;5.60;;
1336;SDS011;662;48.814;9.318;2022-11-15T09:11:07;13.30;;;8.67;;
1336;SDS011;662;48.814;9.318;2022-11-15T09:13:35;11.83;;;7.50;;
1336;SDS011;662;48.814;9.318;2022-11-15T09:16:04;5.60;;;4.70;;
1336;SDS011;662;48.814;9.318;2022-11-15T09:18:30;5.83;;;5.13;;
1336;SDS011;662;48.814;9.318;2022-11-15T09:20:56;8.20;;;4.70;;
1336;SDS011;662;48.814;9.318;2022-11-15T09:23:24;6.53;;;5.30;;
1336;SDS011;662;48.814;9.318;2022-11-15T09:25:51;7.73;;;5.00;;
1336;SDS011;662;48.814;9.318;2022-11-15T09:28:17;8.00;;;5.37;;
1336;SDS011;662;48.814;9.318;2022-11-15T09:30:43;6.10;;;5.00;;
1336;SDS011;662;48.814;9.318;2022-11-15T09:33:09;7.17;;;4.97;;
1336;SDS011;662;48.814;9.318;2022-11-15T09:35:36;5.50;;;4.87;;
1336;SDS011;662;48.814;9.318;2022-11-15T09:38:02;9.73;;;5.23;;
1336;SDS011;662;48.814;9.318;2022-11-15T09:40:29;5.83;;;4.83;;
1336;SDS011;662;48.814;9.318;2022-11-15T09:50:51;8.43;;;5.10;;
1336;SDS011;662;48.814;9.318;2022-11-15T09:53:28;6.50;;;5.00;;
1336;SDS011;662;48.814;9.318;2022-11-15T09:56:05;5.80;;;5.20;;
1336;SDS011;662;48.814;9.318;2022-11-15T10:01:38;5.90;;;5.00;;
1336;SDS011;662;48.814;9.318;2022-11-15T10:04:20;5.30;;;4.67;;
1336;SDS011;662;48.814;9.318;2022-11-15T10:06:50;6.17;;;4.30;;
1336;SDS011;662;48.814;9.318;2022-11-15T10:12:05;4.53;;;3.97;;
1336;SDS011;662;48.814;9.318;2022-11-15T10:14:33;5.53;;;4.10;;
1336;SDS011;662;48.814;9.318;2022-11-15T10:17:14;6.73;;;4.30;;
1336;SDS011;662;48.814;9.318;2022-11-15T10:25:04;4.60;;;4.20;;
1336;SDS011;662;48.814;9.318;2022-11-15T10:27:40;7.23;;;4.53;;
1336;SDS011;662;48.814;9.318;2022-11-15T10:30:14;7.33;;;4.90;;
1336;SDS011;662;48.814;9.318;2022-11-15T10:32:42;8.93;;;5.17;;
1336;SDS011;662;48.814;9.318;2022-11-15T10:35:16;7.33;;;4.63;;
1336;SDS011;662;48.814;9.318;2022-11-15T10:37:47;6.20;;;4.10;;
1336;SDS011;662;48.814;9.318;2022-11-15T10:40:17;4.60;;;3.83;;
1336;SDS011;662;48.814;9.318;2022-11-15T10:42:47;3.90;;;3.60;;
1336;SDS011;662;48.814;9.318;2022-11-15T10:45:29;7.93;;;4.30;;
1336;SDS011;662;48.814;9.318;2022-11-15T10:50:52;5.67;;;3.43;;
1336;SDS011;662;48.814;9.318;2022-11-15T10:53:21;3.70;;;3.40;;
1336;SDS011;662;48.814;9.318;2022-11-15T10:55:55;4.60;;;3.57;;
1336;SDS011;662;48.814;9.318;2022-11-15T10:58:39;3.53;;;3.20;;
1336;SDS011;662;48.814;9.318;2022-11-15T11:04:10;5.63;;;4.57;;
1336;SDS011;662;48.814;9.318;2022-11-15T11:06:52;6.10;;;4.53;;
1336;SDS011;662;48.814;9.318;2022-11-15T11:09:39;6.00;;;3.30;;
1336;SDS011;662;48.814;9.318;2022-11-15T11:12:10;6.40;;;4.10;;
1336;SDS011;662;48.814;9.318;2022-11-15T11:14:37;5.73;;;3.90;;
1336;SDS011;662;48.814;9.318;2022-11-15T11:17:05;4.73;;;4.23;;
1336;SDS011;662;48.814;9.318;2022-11-15T11:33:59;5.90;;;3.70;;
1336;SDS011;662;48.814;9.318;2022-11-15T11:36:48;9.50;;;3.50;;
1336;SDS011;662;48.814;9.318;2022-11-15T11:42:26;3.80;;;3.50;;
1336;SDS011;662;48.814;9.318;2022-11-15T11:50:45;6.50;;;3.77;;
1336;SDS011;662;48.814;9.318;2022-11-15T11:53:25;7.60;;;4.33;;
1336;SDS011;662;48.814;9.318;2022-11-15T11:56:12;7.60;;;3.53;;
1336;SDS011;662;48.814;9.318;2022-11-15T11:58:44;9.03;;;5.87;;
1336;SDS011;662;48.814;9.318;2022-11-15T12:04:15;5.37;;;2.77;;
1336;SDS011;662;48.814;9.318;2022-11-15T12:07:24;3.60;;;3.20;;
1336;SDS011;662;48.814;9.318;2022-11-15T12:15:22;3.67;;;3.37;;
1336;SDS011;662;48.814;9.318;2022-11-15T12:17:51;4.57;;;3.23;;
1336;SDS011;662;48.814;9.318;2022-11-15T12:20:23;4.53;;;3.83;;
1336;SDS011;662;48.814;9.318;2022-11-15T12:23:06;3.50;;;3.20;;
1336;SDS011;662;48.814;9.318;2022-11-15T12:25:52;2.83;;;2.30;;
1336;SDS011;662;48.814;9.318;2022-11-15T12:28:33;4.00;;;2.43;;
1336;SDS011;662;48.814;9.318;2022-11-15T12:31:24;3.80;;;2.70;;
1336;SDS011;662;48.814;9.318;2022-11-15T12:33:54;4.77;;;2.87;;
1336;SDS011;662;48.814;9.318;2022-11-15T12:41:22;3.03;;;2.70;;
1336;SDS011;662;48.814;9.318;2022-11-15T12:43:50;5.17;;;2.50;;
1336;SDS011;662;48.814;9.318;2022-11-15T12:48:48;3.17;;;2.50;;
1336;SDS011;662;48.814;9.318;2022-11-15T12:51:14;5.70;;;3.03;;
1336;SDS011;662;48.814;9.318;2022-11-15T12:53:39;4.47;;;2.83;;
1336;SDS011;662;48.814;9.318;2022-11-15T12:58:41;3.30;;;2.60;;
1336;SDS011;662;48.814;9.318;2022-11-15T13:20:28;6.13;;;2.70;;
1336;SDS011;662;48.814;9.318;2022-11-15T13:22:50;4.80;;;3.00;;
1336;SDS011;662;48.814;9.318;2022-11-15T13:28:22;3.40;;;2.33;;
1336;SDS011;662;48.814;9.318;2022-11-15T13:33:46;2.37;;;2.20;;
1336;SDS011;662;48.814;9.318;2022-11-15T13:36:13;2.63;;;2.30;;
1336;SDS011;662;48.814;9.318;2022-11-15T13:38:54;2.97;;;2.67;;
1336;SDS011;662;48.814;9.318;2022-11-15T13:41:21;4.67;;;2.70;;
1336;SDS011;662;48.814;9.318;2022-11-15T13:43:50;3.80;;;2.17;;
1336;SDS011;662;48.814;9.318;2022-11-15T13:49:00;3.40;;;2.43;;
1336;SDS011;662;48.814;9.318;2022-11-15T13:51:32;2.70;;;2.33;;
1336;SDS011;662;48.814;9.318;2022-11-15T13:54:09;3.80;;;2.57;;
1336;SDS011;662;48.814;9.318;2022-11-15T13:56:39;2.80;;;2.23;;
1336;SDS011;662;48.814;9.318;2022-11-15T13:59:25;3.13;;;2.17;;
1336;SDS011;662;48.814;9.318;2022-11-15T14:01:51;3.00;;;2.30;;
1336;SDS011;662;48.814;9.318;2022-11-15T14:04:19;8.93;;;2.60;;
1336;SDS011;662;48.814;9.318;2022-11-15T14:06:48;4.03;;;2.30;;
1336;SDS011;662;48.814;9.318;2022-11-15T14:09:24;4.80;;;2.60;;
1336;SDS011;662;48.814;9.318;2022-11-15T14:11:56;2.30;;;2.10;;
1336;SDS011;662;48.814;9.318;2022-11-15T14:14:26;6.13;;;2.97;;
1336;SDS011;662;48.814;9.318;2022-11-15T14:16:55;3.70;;;2.73;;
1336;SDS011;662;48.814;9.318;2022-11-15T14:24:33;5.27;;;3.20;;
1336;SDS011;662;48.814;9.318;2022-11-15T14:29:51;3.30;;;2.73;;
1336;SDS011;662;48.814;9.318;2022-11-15T14:34:57;5.37;;;3.00;;
1336;SDS011;662;48.814;9.318;2022-11-15T14:37:28;4.37;;;3.97;;
1336;SDS011;662;48.814;9.318;2022-11-15T14:39:59;4.90;;;2.80;;
1336;SDS011;662;48.814;9.318;2022-11-15T14:42:26;4.23;;;3.17;;
1336;SDS011;662;48.814;9.318;2022-11-15T14:44:52;4.50;;;3.30;;
1336;SDS011;662;48.814;9.318;2022-11-15T14:47:18;4.53;;;3.03;;
1336;SDS011;662;48.814;9.318;2022-11-15T14:49:43;4.00;;;3.30;;
1336;SDS011;662;48.814;9.318;2022-11-15T14:54:55;5.00;;;3.27;;
1336;SDS011;662;48.814;9.318;2022-11-15T14:57:22;3.13;;;2.83;;
1336;SDS011;662;48.814;9.318;2022-11-15T14:59:49;6.97;;;3.33;;
1336;SDS011;662;48.814;9.318;2022-11-15T15:02:19;8.20;;;3.87;;
1336;SDS011;662;48.814;9.318;2022-11-15T15:04:46;6.97;;;3.57;;
1336;SDS011;662;48.814;9.318;2022-11-15T15:07:12;7.90;;;4.03;;
1336;SDS011;662;48.814;9.318;2022-11-15T15:09:38;5.53;;;4.07;;
1336;SDS011;662;48.814;9.318;2022-11-15T15:12:04;4.80;;;3.70;;
1336;SDS011;662;48.814;9.318;2022-11-15T15:14:37;6.97;;;3.43;;
1336;SDS011;662;48.814;9.318;2022-11-15T15:17:03;4.90;;;3.50;;
1336;SDS011;662;48.814;9.318;2022-11-15T15:19:29;5.40;;;4.00;;
1336;SDS011;662;48.814;9.318;2022-11-15T15:21:55;4.40;;;3.80;;
1336;SDS011;662;48.814;9.318;2022-11-15T15:24:20;6.27;;;4.10;;
1336;SDS011;662;48.814;9.318;2022-11-15T15:26:46;5.90;;;4.53;;
1336;SDS011;662;48.814;9.318;2022-11-15T15:29:12;6.40;;;4.67;;
1336;SDS011;662;48.814;9.318;2022-11-15T15:31:38;5.23;;;4.47;;
1336;SDS011;662;48.814;9.318;2022-11-15T15:34:03;5.63;;;3.73;;
1336;SDS011;662;48.814;9.318;2022-11-15T15:36:29;6.80;;;3.73;;
1336;SDS011;662;48.814;9.318;2022-11-15T15:38:55;8.13;;;3.60;;
1336;SDS011;662;48.814;9.318;2022-11-15T15:41:20;6.70;;;3.60;;
1336;SDS011;662;48.814;9.318;2022-11-15T15:43:46;6.30;;;3.83;;
1336;SDS011;662;48.814;9.318;2022-11-15T15:46:16;6.43;;;4.07;;
1336;SDS011;662;48.814;9.318;2022-11-15T15:48:43;5.97;;;4.30;;
1336;SDS011;662;48.814;9.318;2022-11-15T15:51:09;6.07;;;3.73;;
1336;SDS011;662;48.814;9.318;2022-11-15T15:53:35;4.53;;;3.80;;
1336;SDS011;662;48.814;9.318;2022-11-15T15:56:01;5.87;;;3.10;;
1336;SDS011;662;48.814;9.318;2022-11-15T15:58:27;3.70;;;3.07;;
1336;SDS011;662;48.814;9.318;2022-11-15T16:00:52;3.30;;;2.53;;
1336;SDS011;662;48.814;9.318;2022-11-15T16:03:18;3.13;;;2.80;;
1336;SDS011;662;48.814;9.318;2022-11-15T16:05:44;5.13;;;3.57;;
1336;SDS011;662;48.814;9.318;2022-11-15T16:08:16;9.00;;;4.40;;
1336;SDS011;662;48.814;9.318;2022-11-15T16:10:46;3.93;;;3.33;;
1336;SDS011;662;48.814;9.318;2022-11-15T16:13:12;6.10;;;4.10;;
1336;SDS011;662;48.814;9.318;2022-11-15T16:15:38;8.23;;;4.63;;
1336;SDS011;662;48.814;9.318;2022-11-15T16:18:04;5.60;;;5.10;;
1336;SDS011;662;48.814;9.318;2022-11-15T16:22:58;14.60;;;6.53;;
1336;SDS011;662;48.814;9.318;2022-11-15T16:25:25;7.40;;;6.00;;
1336;SDS011;662;48.814;9.318;2022-11-15T16:27:51;6.93;;;5.33;;
1336;SDS011;662;48.814;9.318;2022-11-15T16:30:18;5.77;;;4.60;;
1336;SDS011;662;48.814;9.318;2022-11-15T16:32:45;6.37;;;5.00;;
1336;SDS011;662;48.814;9.318;2022-11-15T16:35:11;6.63;;;5.70;;
1336;SDS011;662;48.814;9.318;2022-11-15T16:37:38;6.87;;;5.10;;
1336;SDS011;662;48.814;9.318;2022-11-15T16:43:03;10.30;;;5.80;;
1336;SDS011;662;48.814;9.318;2022-11-15T16:45:30;10.80;;;5.23;;
1336;SDS011;662;48.814;9.318;2022-11-15T16:47:59;6.10;;;5.50;;
1336;SDS011;662;48.814;9.318;2022-11-15T16:50:26;8.97;;;5.60;;
1336;SDS011;662;48.814;9.318;2022-11-15T16:52:55;7.17;;;6.47;;
1336;SDS011;662;48.814;9.318;2022-11-15T16:55:23;6.83;;;5.60;;
1336;SDS011;662;48.814;9.318;2022-11-15T16:57:51;7.83;;;5.53;;
1336;SDS011;662;48.814;9.318;2022-11-15T17:00:17;6.30;;;5.70;;
1336;SDS011;662;48.814;9.318;2022-11-15T17:02:44;7.40;;;5.07;;
1336;SDS011;662;48.814;9.318;2022-11-15T17:05:11;5.47;;;4.67;;
1336;SDS011;662;48.814;9.318;2022-11-15T17:07:37;5.50;;;4.93;;
1336;SDS011;662;48.814;9.318;2022-11-15T17:10:04;6.33;;;5.00;;
1336;SDS011;662;48.814;9.318;2022-11-15T17:12:31;8.37;;;5.30;;
1336;SDS011;662;48.814;9.318;2022-11-15T17:14:58;5.13;;;4.63;;
1336;SDS011;662;48.814;9.318;2022-11-15T17:17:24;8.27;;;6.17;;
1336;SDS011;662;48.814;9.318;2022-11-15T17:19:51;8.13;;;5.60;;
1336;SDS011;662;48.814;9.318;2022-11-15T17:22:17;6.73;;;5.23;;
1336;SDS011;662;48.814;9.318;2022-11-15T17:24:43;6.53;;;5.40;;
1336;SDS011;662;48.814;9.318;2022-11-15T17:27:09;6.20;;;5.00;;
1336;SDS011;662;48.814;9.318;2022-11-15T17:29:35;7.40;;;5.60;;
1336;SDS011;662;48.814;9.318;2022-11-15T17:32:00;8.20;;;4.73;;
1336;SDS011;662;48.814;9.318;2022-11-15T17:34:26;7.03;;;4.13;;
1336;SDS011;662;48.814;9.318;2022-11-15T17:36:52;5.87;;;4.67;;
1336;SDS011;662;48.814;9.318;2022-11-15T17:39:18;6.40;;;4.70;;
1336;SDS011;662;48.814;9.318;2022-11-15T17:41:45;7.10;;;4.97;;
1336;SDS011;662;48.814;9.318;2022-11-15T17:44:11;5.90;;;5.30;;
1336;SDS011;662;48.814;9.318;2022-11-15T17:46:37;6.10;;;5.23;;
1336;SDS011;662;48.814;9.318;2022-11-15T17:49:04;7.67;;;4.90;;
1336;SDS011;662;48.814;9.318;2022-11-15T17:51:30;6.17;;;4.93;;
1336;SDS011;662;48.814;9.318;2022-11-15T17:53:56;6.50;;;5.40;;
1336;SDS011;662;48.814;9.318;2022-11-15T17:56:22;6.00;;;4.87;;
1336;SDS011;662;48.814;9.318;2022-11-15T17:58:50;8.83;;;5.37;;